createdAt,value
2023-11-13T00:00:17.101Z,9.55
2023-11-13T00:01:20.263Z,10.82
2023-11-13T00:02:24.213Z,9.63
2023-11-13T00:03:27.963Z,9.05
2023-11-13T00:04:30.766Z,9.02
2023-11-13T00:05:33.511Z,9.40
2023-11-13T00:06:36.645Z,8.82
2023-11-13T00:07:39.452Z,11.18
2023-11-13T00:08:43.846Z,9.38
2023-11-13T00:09:46.943Z,8.68
2023-11-13T00:10:50.058Z,8.45
2023-11-13T00:11:54.368Z,8.63
2023-11-13T00:12:57.367Z,8.90
2023-11-13T00:14:00.496Z,9.07
2023-11-13T00:15:05.359Z,9.35
2023-11-13T00:16:08.154Z,8.52
2023-11-13T00:17:11.407Z,9.35
2023-11-13T00:18:14.392Z,9.73
2023-11-13T00:19:17.871Z,8.45
2023-11-13T00:20:21.272Z,8.73
2023-11-13T00:21:24.180Z,9.63
2023-11-13T00:22:27.766Z,9.70
2023-11-13T00:23:30.735Z,8.53
2023-11-13T00:24:33.414Z,9.38
2023-11-13T00:25:36.073Z,8.32
2023-11-13T00:26:38.693Z,9.18
2023-11-13T00:27:41.623Z,9.43
2023-11-13T00:28:44.198Z,9.18
2023-11-13T00:29:46.793Z,10.90
2023-11-13T00:30:49.748Z,7.95
2023-11-13T00:31:52.415Z,9.02
2023-11-13T00:32:56.336Z,9.82
2023-11-13T00:33:59.721Z,7.53
2023-11-13T00:35:02.617Z,10.93
2023-11-13T00:36:07.493Z,8.25
2023-11-13T00:37:10.680Z,8.27
2023-11-13T00:38:14.768Z,7.72
2023-11-13T00:39:20.699Z,9.25
2023-11-13T00:40:25.358Z,8.32
2023-11-13T00:41:32.906Z,8.13
2023-11-13T00:42:35.778Z,8.27
2023-11-13T00:43:39.348Z,9.70
2023-11-13T00:44:42.172Z,9.73
2023-11-13T00:45:45.930Z,10.43
2023-11-13T00:46:48.977Z,9.38
2023-11-13T00:47:51.913Z,10.30
2023-11-13T00:48:55.410Z,9.18
2023-11-13T00:49:58.210Z,7.70
2023-11-13T00:51:02.759Z,8.57
2023-11-13T00:52:05.936Z,9.02
2023-11-13T00:53:08.850Z,9.30
2023-11-13T00:54:11.968Z,9.70
2023-11-13T00:55:14.723Z,9.97
2023-11-13T00:56:17.854Z,7.90
2023-11-13T00:57:20.474Z,8.48
2023-11-13T00:58:25.972Z,8.05
2023-11-13T00:59:29.255Z,9.50
2023-11-13T01:00:33.239Z,9.52
2023-11-13T01:01:36.319Z,7.80
2023-11-13T01:02:39.448Z,9.40
2023-11-13T01:03:44.099Z,8.05
2023-11-13T01:04:47.452Z,8.95
2023-11-13T01:05:51.569Z,8.93
2023-11-13T01:06:56.420Z,9.77
2023-11-13T01:07:59.364Z,8.13
2023-11-13T01:09:02.205Z,8.60
2023-11-13T01:10:06.918Z,8.65
2023-11-13T01:11:09.874Z,7.22
2023-11-13T01:12:13.564Z,8.18
2023-11-13T01:13:16.309Z,7.70
2023-11-13T01:14:19.519Z,11.07
2023-11-13T01:15:24.128Z,7.62
2023-11-13T01:16:27.162Z,8.23
2023-11-13T01:17:30.755Z,7.87
2023-11-13T01:18:34.091Z,8.57
2023-11-13T01:19:37.055Z,10.23
2023-11-13T01:20:40.411Z,8.90
2023-11-13T01:21:43.334Z,8.45
2023-11-13T01:22:46.819Z,10.23
2023-11-13T01:23:49.583Z,8.15
2023-11-13T01:24:52.194Z,9.07
2023-11-13T01:25:55.468Z,9.02
2023-11-13T01:26:58.579Z,8.97
2023-11-13T01:28:01.290Z,9.07
2023-11-13T01:29:04.819Z,8.07
2023-11-13T01:30:09.895Z,9.30
2023-11-13T01:31:16.396Z,8.98
2023-11-13T01:32:19.187Z,8.10
2023-11-13T01:33:23.263Z,8.40
2023-11-13T01:34:26.231Z,7.50
2023-11-13T01:35:29.331Z,7.90
2023-11-13T01:36:32.218Z,8.43
2023-11-13T01:37:35.080Z,9.23
2023-11-13T01:38:37.995Z,7.60
2023-11-13T01:39:40.697Z,8.32
2023-11-13T01:40:43.484Z,7.62
2023-11-13T01:41:47.012Z,8.65
2023-11-13T01:42:50.160Z,8.07
2023-11-13T01:43:52.727Z,8.15
2023-11-13T01:44:57.105Z,8.40
2023-11-13T01:46:00.488Z,8.40
2023-11-13T01:47:05.575Z,8.95
2023-11-13T01:48:09.072Z,8.30
2023-11-13T01:49:12.461Z,7.90
2023-11-13T01:50:15.498Z,7.85
2023-11-13T01:51:18.110Z,10.05
2023-11-13T01:52:21.841Z,8.85
2023-11-13T01:53:25.930Z,9.10
2023-11-13T01:54:29.220Z,10.35
2023-11-13T01:55:32.278Z,9.38
2023-11-13T01:56:36.168Z,9.48
2023-11-13T01:57:40.467Z,11.07
2023-11-13T01:58:43.929Z,9.73
2023-11-13T01:59:46.886Z,8.90
2023-11-13T02:00:50.481Z,9.02
2023-11-13T02:01:54.673Z,8.20
2023-11-13T02:03:00.170Z,9.18
2023-11-13T02:04:04.712Z,9.45
2023-11-13T02:05:08.418Z,9.05
2023-11-13T02:06:11.597Z,9.73
2023-11-13T02:07:14.791Z,7.68
2023-11-13T02:08:17.723Z,9.27
2023-11-13T02:09:21.754Z,7.97
2023-11-13T02:10:27.623Z,10.02
2023-11-13T02:11:31.908Z,12.20
2023-11-13T02:12:35.970Z,9.25
2023-11-13T02:13:42.082Z,9.32
2023-11-13T02:14:45.239Z,8.85
2023-11-13T02:15:48.278Z,12.63
2023-11-13T02:16:51.281Z,13.62
2023-11-13T02:18:05.225Z,15.52
2023-11-13T02:19:08.350Z,14.77
2023-11-13T02:20:11.435Z,16.50
2023-11-13T02:21:14.614Z,19.35
2023-11-13T02:22:17.288Z,18.73
2023-11-13T02:23:20.331Z,17.52
2023-11-13T02:24:24.543Z,17.92
2023-11-13T02:25:27.828Z,14.35
2023-11-13T02:26:30.734Z,14.00
2023-11-13T02:27:33.642Z,12.95
2023-11-13T02:28:36.714Z,10.52
2023-11-13T02:29:39.326Z,10.20
2023-11-13T02:30:41.956Z,10.27
2023-11-13T02:31:52.827Z,10.25
2023-11-13T02:32:57.432Z,9.85
2023-11-13T02:34:00.688Z,9.52
2023-11-13T02:35:06.085Z,9.23
2023-11-13T02:36:09.324Z,8.73
2023-11-13T02:37:14.209Z,8.95
2023-11-13T02:38:17.148Z,8.18
2023-11-13T02:39:21.305Z,10.68
2023-11-13T02:40:24.275Z,9.27
2023-11-13T02:41:27.064Z,8.77
2023-11-13T02:42:35.587Z,8.95
2023-11-13T02:43:38.654Z,8.00
2023-11-13T02:44:41.877Z,10.60
2023-11-13T02:45:44.544Z,7.55
2023-11-13T02:46:47.591Z,8.20
2023-11-13T02:47:52.747Z,8.15
2023-11-13T02:48:55.747Z,8.63
2023-11-13T02:49:59.602Z,8.18
2023-11-13T02:51:02.981Z,9.15
2023-11-13T02:52:06.046Z,9.33
2023-11-13T02:53:09.011Z,7.72
2023-11-13T02:54:11.896Z,8.25
2023-11-13T02:55:15.295Z,9.15
2023-11-13T02:56:18.180Z,8.95
2023-11-13T02:57:20.817Z,8.05
2023-11-13T02:58:23.674Z,9.45
2023-11-13T02:59:26.552Z,8.18
2023-11-13T03:00:29.945Z,8.90
2023-11-13T03:01:33.110Z,8.98
2023-11-13T03:02:36.109Z,8.80
2023-11-13T03:03:39.587Z,9.43
2023-11-13T03:04:42.497Z,8.05
2023-11-13T03:05:45.820Z,7.90
2023-11-13T03:06:48.720Z,8.48
2023-11-13T03:07:52.089Z,10.30
2023-11-13T03:08:55.115Z,8.32
2023-11-13T03:09:58.586Z,8.52
2023-11-13T03:11:01.838Z,8.82
2023-11-13T03:12:04.870Z,8.88
2023-11-13T03:13:07.547Z,9.70
2023-11-13T03:14:10.754Z,9.07
2023-11-13T03:15:13.790Z,8.48
2023-11-13T03:16:17.295Z,11.05
2023-11-13T03:17:21.283Z,8.48
2023-11-13T03:18:23.874Z,11.02
2023-11-13T03:19:26.550Z,9.63
2023-11-13T03:20:30.142Z,8.95
2023-11-13T03:21:33.275Z,9.07
2023-11-13T03:22:36.127Z,9.73
2023-11-13T03:23:39.031Z,9.87
2023-11-13T03:24:41.760Z,9.35
2023-11-13T03:25:44.824Z,10.45
2023-11-13T03:26:48.794Z,9.95
2023-11-13T03:27:51.847Z,9.43
2023-11-13T03:28:54.493Z,9.65
2023-11-13T03:29:59.247Z,9.98
2023-11-13T03:31:02.482Z,8.88
2023-11-13T03:32:06.293Z,8.40
2023-11-13T03:33:09.251Z,9.82
2023-11-13T03:34:13.880Z,9.27
2023-11-13T03:35:18.592Z,10.18
2023-11-13T03:36:21.553Z,10.32
2023-11-13T03:37:24.712Z,8.77
2023-11-13T03:38:28.444Z,10.38
2023-11-13T03:39:31.293Z,9.13
2023-11-13T03:40:34.454Z,8.57
2023-11-13T03:41:37.614Z,7.95
2023-11-13T03:42:40.519Z,9.93
2023-11-13T03:43:43.380Z,8.63
2023-11-13T03:44:46.603Z,8.57
2023-11-13T03:45:49.515Z,8.57
2023-11-13T03:46:53.156Z,9.13
2023-11-13T03:47:56.476Z,10.13
2023-11-13T03:48:59.426Z,9.18
2023-11-13T03:50:02.414Z,9.23
2023-11-13T03:51:05.593Z,12.65
2023-11-13T03:52:11.755Z,31.67
2023-11-13T03:53:14.642Z,50.67
2023-11-13T03:54:17.283Z,66.40
2023-11-13T03:55:20.172Z,77.07
2023-11-13T03:56:24.953Z,73.22
2023-11-13T03:57:27.554Z,71.82
2023-11-13T03:58:30.689Z,67.47
2023-11-13T03:59:33.565Z,54.88
2023-11-13T04:00:37.614Z,47.58
2023-11-13T04:01:40.562Z,40.50
2023-11-13T04:02:43.318Z,37.53
2023-11-13T04:03:48.141Z,28.77
2023-11-13T04:04:51.219Z,23.95
2023-11-13T04:05:55.320Z,23.50
2023-11-13T04:06:58.738Z,22.13
2023-11-13T04:08:01.554Z,18.77
2023-11-13T04:09:04.262Z,20.27
2023-11-13T04:10:14.204Z,23.45
2023-11-13T04:11:17.736Z,22.58
2023-11-13T04:12:21.008Z,21.50
2023-11-13T04:13:26.732Z,23.00
2023-11-13T04:14:30.015Z,23.08
2023-11-13T04:15:32.950Z,22.00
2023-11-13T04:16:36.475Z,21.90
2023-11-13T04:17:39.572Z,20.52
2023-11-13T04:18:42.418Z,20.37
2023-11-13T04:19:45.004Z,19.20
2023-11-13T04:20:47.620Z,19.08
2023-11-13T04:21:50.641Z,15.30
2023-11-13T04:22:55.791Z,16.45
2023-11-13T04:24:02.202Z,16.08
2023-11-13T04:25:05.497Z,15.77
2023-11-13T04:26:10.280Z,13.70
2023-11-13T04:27:13.687Z,15.10
2023-11-13T04:28:19.388Z,13.57
2023-11-13T04:29:23.188Z,11.93
2023-11-13T04:30:26.037Z,11.90
2023-11-13T04:31:29.859Z,11.07
2023-11-13T04:32:32.834Z,12.98
2023-11-13T04:33:36.799Z,11.25
2023-11-13T04:34:39.790Z,11.77
2023-11-13T04:35:42.657Z,12.95
2023-11-13T04:36:45.692Z,10.73
2023-11-13T04:37:48.630Z,10.00
2023-11-13T04:38:51.523Z,12.13
2023-11-13T04:39:54.174Z,10.93
2023-11-13T04:40:57.029Z,10.85
2023-11-13T04:42:00.075Z,10.32
2023-11-13T04:43:06.234Z,11.05
2023-11-13T04:44:10.091Z,11.02
2023-11-13T04:45:14.009Z,10.90
2023-11-13T04:46:17.113Z,11.00
2023-11-13T04:47:19.800Z,10.23
2023-11-13T04:48:23.064Z,11.13
2023-11-13T04:49:26.231Z,11.30
2023-11-13T04:50:29.653Z,12.77
2023-11-13T04:51:32.733Z,10.63
2023-11-13T04:52:35.435Z,11.90
2023-11-13T04:53:38.525Z,11.43
2023-11-13T04:54:41.423Z,11.73
2023-11-13T04:55:44.393Z,14.38
2023-11-13T04:56:47.342Z,11.18
2023-11-13T04:57:50.215Z,11.73
2023-11-13T04:58:53.109Z,12.07
2023-11-13T04:59:56.268Z,12.25
2023-11-13T05:00:59.275Z,10.07
2023-11-13T05:02:02.425Z,12.40
2023-11-13T05:03:05.456Z,11.12
2023-11-13T05:04:08.698Z,10.02
2023-11-13T05:05:12.612Z,14.77
2023-11-13T05:06:18.827Z,11.38
2023-11-13T05:07:22.076Z,14.18
2023-11-13T05:08:26.629Z,11.77
2023-11-13T05:09:29.350Z,11.07
2023-11-13T05:10:33.760Z,12.30
2023-11-13T05:11:36.384Z,13.52
2023-11-13T05:12:40.088Z,11.63
2023-11-13T05:13:42.996Z,11.75
2023-11-13T05:14:45.668Z,12.65
2023-11-13T05:15:48.683Z,14.60
2023-11-13T05:16:56.252Z,12.93
2023-11-13T05:17:58.891Z,15.85
2023-11-13T05:19:01.533Z,13.60
2023-11-13T05:20:06.511Z,16.63
2023-11-13T05:21:10.794Z,22.33
2023-11-13T05:22:15.167Z,30.35
2023-11-13T05:23:18.049Z,43.08
2023-11-13T05:24:21.199Z,44.47
2023-11-13T05:25:24.142Z,45.15
2023-11-13T05:26:27.330Z,41.30
2023-11-13T05:27:30.171Z,38.42
2023-11-13T05:28:32.905Z,30.67
2023-11-13T05:29:35.589Z,28.33
2023-11-13T05:30:41.522Z,26.10
2023-11-13T05:31:44.752Z,24.40
2023-11-13T05:32:47.737Z,21.12
2023-11-13T05:33:50.746Z,23.80
2023-11-13T05:34:53.705Z,21.52
2023-11-13T05:35:57.383Z,22.60
2023-11-13T05:37:00.649Z,20.98
2023-11-13T05:38:04.815Z,18.83
2023-11-13T05:39:08.885Z,19.23
2023-11-13T05:40:16.171Z,19.08
2023-11-13T05:41:19.151Z,19.40
2023-11-13T05:42:24.560Z,20.90
2023-11-13T05:43:27.507Z,16.85
2023-11-13T05:44:30.132Z,16.62
2023-11-13T05:45:33.078Z,17.40
2023-11-13T05:46:35.848Z,14.70
2023-11-13T05:47:39.174Z,14.98
2023-11-13T05:48:41.983Z,16.60
2023-11-13T05:49:45.482Z,17.67
2023-11-13T05:50:48.139Z,16.00
2023-11-13T05:51:51.082Z,15.70
2023-11-13T05:52:54.130Z,15.88
2023-11-13T05:53:56.976Z,16.42
2023-11-13T05:54:59.933Z,16.45
2023-11-13T05:56:02.821Z,18.83
2023-11-13T05:57:05.951Z,17.45
2023-11-13T05:58:09.202Z,17.70
2023-11-13T05:59:12.062Z,20.00
2023-11-13T06:00:14.916Z,20.30
2023-11-13T06:01:19.690Z,20.83
2023-11-13T06:02:22.770Z,18.57
2023-11-13T06:03:26.415Z,19.52
2023-11-13T06:04:29.568Z,20.48
2023-11-13T06:05:33.012Z,19.55
2023-11-13T06:06:35.934Z,19.55
2023-11-13T06:07:38.967Z,17.62
2023-11-13T06:08:50.895Z,18.37
2023-11-13T06:09:53.926Z,17.17
2023-11-13T06:10:56.678Z,16.52
2023-11-13T06:11:59.851Z,18.15
2023-11-13T06:13:03.642Z,18.77
2023-11-13T06:14:07.074Z,20.10
2023-11-13T06:15:18.360Z,19.95
2023-11-13T06:16:22.060Z,17.85
2023-11-13T06:17:26.669Z,16.77
2023-11-13T06:18:31.906Z,16.05
2023-11-13T06:19:34.984Z,15.07
2023-11-13T06:20:37.929Z,16.42
2023-11-13T06:21:40.918Z,17.25
2023-11-13T06:22:45.123Z,14.68
2023-11-13T06:23:48.046Z,15.83
2023-11-13T06:24:51.941Z,16.05
2023-11-13T06:25:54.967Z,14.00
2023-11-13T06:26:57.881Z,14.87
2023-11-13T06:28:00.929Z,14.82
2023-11-13T06:29:05.087Z,15.13
2023-11-13T06:30:13.873Z,14.48
2023-11-13T06:31:27.089Z,13.77
2023-11-13T06:32:30.846Z,13.73
2023-11-13T06:33:34.380Z,12.30
2023-11-13T06:34:37.306Z,16.00
2023-11-13T06:35:40.129Z,14.87
2023-11-13T06:36:45.764Z,13.48
2023-11-13T06:37:48.787Z,14.20
2023-11-13T06:38:51.736Z,13.55
2023-11-13T06:39:54.405Z,12.70
2023-11-13T06:40:57.287Z,17.20
2023-11-13T06:41:59.920Z,17.37
2023-11-13T06:43:02.705Z,19.40
2023-11-13T06:44:09.001Z,18.67
2023-11-13T06:45:14.280Z,18.07
2023-11-13T06:46:17.670Z,20.33
2023-11-13T06:47:20.913Z,22.42
2023-11-13T06:48:23.929Z,26.52
2023-11-13T06:49:27.431Z,31.83
2023-11-13T06:50:30.082Z,31.50
2023-11-13T06:51:32.981Z,33.85
2023-11-13T06:52:36.002Z,36.00
2023-11-13T06:53:38.848Z,34.97
2023-11-13T06:54:42.248Z,33.42
2023-11-13T06:55:44.971Z,30.57
2023-11-13T06:56:47.937Z,29.15
2023-11-13T06:57:50.787Z,26.70
2023-11-13T06:58:53.522Z,29.58
2023-11-13T06:59:57.061Z,26.05
2023-11-13T07:01:00.010Z,30.67
2023-11-13T07:02:02.823Z,33.35
2023-11-13T07:03:06.013Z,31.08
2023-11-13T07:04:11.807Z,29.65
2023-11-13T07:05:16.815Z,31.10
2023-11-13T07:06:19.992Z,29.80
2023-11-13T07:07:25.394Z,28.27
2023-11-13T07:08:28.272Z,29.30
2023-11-13T07:09:31.468Z,30.77
2023-11-13T07:10:37.430Z,33.50
2023-11-13T07:11:44.486Z,32.97
2023-11-13T07:12:47.363Z,35.05
2023-11-13T07:13:50.179Z,37.88
2023-11-13T07:14:53.000Z,37.80
2023-11-13T07:15:56.244Z,43.03
2023-11-13T07:16:59.312Z,41.60
2023-11-13T07:18:02.265Z,43.70
2023-11-13T07:19:05.076Z,49.20
2023-11-13T07:20:10.778Z,47.62
2023-11-13T07:21:13.982Z,47.30
2023-11-13T07:22:16.612Z,48.20
2023-11-13T07:23:19.502Z,52.55
2023-11-13T07:24:22.414Z,46.60
2023-11-13T07:25:25.389Z,45.17
2023-11-13T07:26:28.588Z,44.78
2023-11-13T07:27:31.759Z,40.93
2023-11-13T07:28:34.926Z,44.47
2023-11-13T07:29:37.872Z,39.92
2023-11-13T07:30:43.800Z,38.63
2023-11-13T07:31:47.096Z,41.30
2023-11-13T07:32:50.225Z,42.92
2023-11-13T07:33:52.965Z,42.13
2023-11-13T07:34:56.052Z,41.17
2023-11-13T07:35:58.892Z,43.42
2023-11-13T07:37:02.461Z,42.22
2023-11-13T07:38:08.989Z,44.03
2023-11-13T07:39:13.177Z,42.85
2023-11-13T07:40:16.922Z,45.80
2023-11-13T07:41:20.731Z,44.95
2023-11-13T07:53:39.495Z,42.53
2023-11-13T07:54:42.955Z,41.05
2023-11-13T07:55:45.879Z,40.10
2023-11-13T07:56:49.291Z,38.00
2023-11-13T07:57:53.554Z,34.42
2023-11-13T07:58:58.521Z,35.55
2023-11-13T08:00:02.437Z,37.97
2023-11-13T08:01:15.236Z,34.55
2023-11-13T08:02:21.163Z,46.03
2023-11-13T08:03:26.353Z,58.10
2023-11-13T08:04:29.940Z,58.05
2023-11-13T08:05:33.204Z,61.63
2023-11-13T08:06:36.108Z,67.53
2023-11-13T08:07:41.199Z,59.33
2023-11-13T08:08:45.935Z,53.87
2023-11-13T08:09:48.924Z,52.40
2023-11-13T08:10:53.136Z,50.42
2023-11-13T08:11:55.827Z,43.25
2023-11-13T08:13:01.298Z,42.10
2023-11-13T08:14:04.596Z,40.67
2023-11-13T08:15:09.264Z,34.88
2023-11-13T08:16:12.021Z,32.25
2023-11-13T08:17:15.042Z,32.57
2023-11-13T08:18:19.931Z,29.37
2023-11-13T08:19:22.956Z,28.60
2023-11-13T08:20:27.736Z,28.45
2023-11-13T08:21:32.576Z,29.65
2023-11-13T08:22:36.918Z,26.25
2023-11-13T08:23:40.528Z,25.88
2023-11-13T08:24:43.569Z,26.23
2023-11-13T08:25:49.243Z,26.42
2023-11-13T08:26:52.050Z,25.85
2023-11-13T08:27:54.779Z,22.23
2023-11-13T08:29:01.186Z,25.07
2023-11-13T08:30:04.389Z,25.50
2023-11-13T08:31:09.339Z,22.77
2023-11-13T08:32:13.002Z,24.70
2023-11-13T08:33:16.833Z,24.17
2023-11-13T08:34:20.734Z,21.77
2023-11-13T08:35:23.678Z,23.80
2023-11-13T08:36:27.777Z,20.62
2023-11-13T08:37:32.164Z,21.02
2023-11-13T08:38:37.145Z,20.73
2023-11-13T08:39:40.568Z,20.93
2023-11-13T08:40:43.568Z,18.98
2023-11-13T08:41:46.295Z,20.02
2023-11-13T08:42:48.957Z,18.08
2023-11-13T08:43:51.654Z,20.65
2023-11-13T08:44:54.693Z,20.73
2023-11-13T08:46:00.906Z,20.00
2023-11-13T08:47:04.783Z,20.02
2023-11-13T08:48:08.515Z,19.77
2023-11-13T08:49:11.203Z,21.50
2023-11-13T08:50:15.277Z,20.60
2023-11-13T08:51:17.986Z,20.52
2023-11-13T08:52:21.534Z,18.73
2023-11-13T08:53:24.456Z,18.83
2023-11-13T08:54:29.532Z,18.15
2023-11-13T08:55:32.872Z,17.77
2023-11-13T08:56:35.865Z,17.92
2023-11-13T08:57:41.629Z,19.37
2023-11-13T08:58:44.842Z,21.48
2023-11-13T08:59:48.263Z,16.83
2023-11-13T09:00:53.400Z,20.67
2023-11-13T09:01:58.071Z,21.67
2023-11-13T09:03:11.439Z,18.62
2023-11-13T09:04:15.087Z,18.25
2023-11-13T09:05:20.249Z,14.38
2023-11-13T09:06:23.512Z,12.63
2023-11-13T09:07:26.570Z,13.60
2023-11-13T09:08:44.899Z,11.05
2023-11-13T09:09:56.798Z,13.45
2023-11-13T09:11:03.089Z,11.87
2023-11-13T09:12:08.442Z,12.33
2023-11-13T09:13:20.724Z,15.80
2023-11-13T09:14:23.751Z,16.15
2023-11-13T09:15:31.849Z,18.48
2023-11-13T09:16:39.521Z,18.37
2023-11-13T09:17:43.188Z,14.70
2023-11-13T09:18:50.243Z,18.12
2023-11-13T09:19:54.554Z,22.60
2023-11-13T09:20:57.262Z,23.00
2023-11-13T09:22:03.432Z,22.53
2023-11-13T09:23:10.446Z,24.00
2023-11-13T09:24:15.850Z,20.15
2023-11-13T09:25:27.991Z,22.25
2023-11-13T09:26:31.043Z,21.00
2023-11-13T09:27:34.171Z,18.27
2023-11-13T09:28:37.413Z,17.95
2023-11-13T09:29:44.815Z,17.40
2023-11-13T09:30:47.753Z,12.55
2023-11-13T09:31:50.586Z,12.32
2023-11-13T09:32:54.014Z,13.77
2023-11-13T09:34:03.444Z,14.80
2023-11-13T09:35:19.329Z,12.88
2023-11-13T09:36:22.921Z,13.77
2023-11-13T09:37:28.705Z,13.10
2023-11-13T09:38:32.478Z,12.05
2023-11-13T09:39:40.525Z,12.48
2023-11-13T09:40:43.187Z,11.73
2023-11-13T09:41:52.172Z,9.93
2023-11-13T09:43:04.855Z,9.90
2023-11-13T09:44:07.926Z,9.60
2023-11-13T09:45:14.003Z,11.03
2023-11-13T09:46:18.266Z,12.35
2023-11-13T09:47:24.710Z,13.48
2023-11-13T09:48:31.964Z,13.88
2023-11-13T09:49:44.874Z,18.10
2023-11-13T09:51:02.186Z,16.37
2023-11-13T09:52:07.696Z,16.67
2023-11-13T09:53:16.725Z,16.77
2023-11-13T09:54:22.306Z,17.37
2023-11-13T09:55:27.421Z,14.37
2023-11-13T09:56:32.035Z,16.47
2023-11-13T09:57:36.208Z,14.98
2023-11-13T09:58:40.143Z,17.42
2023-11-13T09:59:47.099Z,13.93
2023-11-13T10:00:52.036Z,14.63
2023-11-13T10:01:55.736Z,15.88
2023-11-13T10:02:58.633Z,14.10
2023-11-13T10:04:05.969Z,18.15
2023-11-13T10:05:09.196Z,16.85
2023-11-13T10:06:14.882Z,16.03
2023-11-13T10:07:21.115Z,16.53
2023-11-13T10:08:25.687Z,13.38
2023-11-13T10:09:28.360Z,13.13
2023-11-13T10:10:31.726Z,14.98
2023-11-13T10:11:34.660Z,13.85
2023-11-13T10:12:37.676Z,11.65
2023-11-13T10:13:40.640Z,12.85
2023-11-13T10:15:01.165Z,12.65
2023-11-13T10:16:24.197Z,10.70
2023-11-13T10:17:27.055Z,11.43
2023-11-13T10:18:33.155Z,13.60
2023-11-13T10:19:36.792Z,13.73
2023-11-13T10:20:47.662Z,12.95
2023-11-13T10:21:52.671Z,12.45
2023-11-13T10:23:08.213Z,11.80
2023-11-13T10:24:34.332Z,10.95
2023-11-13T10:25:57.634Z,11.70
2023-11-13T10:27:00.825Z,9.88
2023-11-13T10:28:03.968Z,11.23
2023-11-13T10:29:20.575Z,11.63
2023-11-13T10:30:23.545Z,12.63
2023-11-13T10:31:26.500Z,10.63
2023-11-13T10:32:32.453Z,11.20
2023-11-13T10:33:35.264Z,10.13
2023-11-13T10:34:43.790Z,12.88
2023-11-13T10:35:49.733Z,9.15
2023-11-13T10:37:13.118Z,11.00
2023-11-13T10:38:16.356Z,9.60
2023-11-13T10:39:36.447Z,9.75
2023-11-13T10:40:45.362Z,9.77
2023-11-13T10:41:48.727Z,12.43
2023-11-13T10:42:51.562Z,10.88
2023-11-13T10:43:54.624Z,12.35
2023-11-13T10:45:01.024Z,11.05
2023-11-13T10:46:06.113Z,11.07
2023-11-13T10:47:50.783Z,10.65
2023-11-13T10:48:57.855Z,9.73
2023-11-13T10:50:01.887Z,9.65
2023-11-13T10:51:06.811Z,8.55
2023-11-13T10:52:10.561Z,10.53
2023-11-13T10:53:14.645Z,8.97
2023-11-13T10:54:20.151Z,9.40
2023-11-13T10:55:23.566Z,10.43
2023-11-13T10:56:27.074Z,9.80
2023-11-13T10:57:30.217Z,9.00
2023-11-13T10:58:33.761Z,9.43
2023-11-13T10:59:37.382Z,12.15
2023-11-13T11:00:40.904Z,9.90
2023-11-13T11:01:44.881Z,9.43
2023-11-13T11:02:52.462Z,13.43
2023-11-13T11:04:05.478Z,18.23
2023-11-13T11:05:17.642Z,14.32
2023-11-13T11:06:27.179Z,13.35
2023-11-13T11:07:32.680Z,12.50
2023-11-13T11:08:36.310Z,11.95
2023-11-13T11:09:39.470Z,11.05
2023-11-13T11:10:42.613Z,9.93
2023-11-13T11:11:47.740Z,9.40
2023-11-13T11:12:54.424Z,11.02
2023-11-13T11:14:18.418Z,17.03
2023-11-13T11:15:41.023Z,26.20
2023-11-13T11:16:53.184Z,24.25
2023-11-13T11:18:25.219Z,22.70
2023-11-13T11:19:38.781Z,18.70
2023-11-13T11:21:19.908Z,20.08
2023-11-13T11:22:34.801Z,16.33
2023-11-13T11:23:52.615Z,14.25
2023-11-13T11:24:58.320Z,13.55
2023-11-13T11:26:01.888Z,12.95
2023-11-13T11:27:05.039Z,12.10
2023-11-13T11:28:07.785Z,11.13
2023-11-13T11:29:33.290Z,10.35
2023-11-13T11:30:39.257Z,10.27
2023-11-13T11:31:44.517Z,10.70
2023-11-13T11:32:57.118Z,10.90
2023-11-13T11:34:00.626Z,9.50
2023-11-13T11:35:05.343Z,11.65
2023-11-13T11:36:10.332Z,12.07
2023-11-13T11:37:15.543Z,11.82
2023-11-13T11:38:28.888Z,12.90
2023-11-13T11:39:45.525Z,12.63
2023-11-13T11:40:49.707Z,9.77
2023-11-13T11:41:54.626Z,10.80
2023-11-13T11:42:57.494Z,11.35
2023-11-13T11:44:03.880Z,9.48
2023-11-13T11:45:08.520Z,9.73
2023-11-13T11:46:14.467Z,9.40
2023-11-13T11:47:27.087Z,8.50
2023-11-13T11:48:30.288Z,8.27
2023-11-13T11:49:33.511Z,8.20
2023-11-13T11:50:38.743Z,9.00
2023-11-13T11:51:41.911Z,9.50
2023-11-13T11:52:53.110Z,8.80
2023-11-13T11:53:59.587Z,10.60
2023-11-13T11:55:05.319Z,21.85
2023-11-13T11:56:08.702Z,23.55
2023-11-13T11:57:13.234Z,25.52
2023-11-13T11:58:18.049Z,27.50
2023-11-13T11:59:21.257Z,23.12
2023-11-13T12:00:26.667Z,20.40
2023-11-13T12:01:29.944Z,19.47
2023-11-13T12:02:34.285Z,16.52
2023-11-13T12:03:37.650Z,15.15
2023-11-13T12:04:41.366Z,15.55
2023-11-13T12:05:44.436Z,13.43
2023-11-13T12:06:50.391Z,12.00
2023-11-13T12:07:53.916Z,12.50
2023-11-13T12:08:56.851Z,12.60
2023-11-13T12:09:59.451Z,11.52
2023-11-13T12:11:03.413Z,11.03
2023-11-13T12:12:06.898Z,10.40
2023-11-13T12:13:10.640Z,10.77
2023-11-13T12:14:14.359Z,9.07
2023-11-13T12:15:17.108Z,10.77
2023-11-13T12:16:23.204Z,10.50
2023-11-13T12:17:27.591Z,10.55
2023-11-13T12:18:30.616Z,10.77
2023-11-13T12:19:34.990Z,11.75
2023-11-13T12:20:37.914Z,12.05
2023-11-13T12:21:45.078Z,12.77
2023-11-13T12:22:48.444Z,12.00
2023-11-13T12:23:54.074Z,10.32
2023-11-13T12:24:56.875Z,10.55
2023-11-13T12:25:59.928Z,10.70
2023-11-13T12:27:02.701Z,10.73
2023-11-13T12:28:08.523Z,9.85
2023-11-13T12:29:20.895Z,9.68
2023-11-13T12:30:28.082Z,9.30
2023-11-13T12:31:31.056Z,10.50
2023-11-13T12:32:35.225Z,7.87
2023-11-13T12:33:38.527Z,9.00
2023-11-13T12:34:41.430Z,9.70
2023-11-13T12:35:45.288Z,8.95
2023-11-13T12:36:49.753Z,9.05
2023-11-13T12:37:53.598Z,10.10
2023-11-13T12:38:57.449Z,12.20
2023-11-13T12:40:01.608Z,13.73
2023-11-13T12:41:05.603Z,11.88
2023-11-13T12:42:08.806Z,12.88
2023-11-13T12:43:11.536Z,11.63
2023-11-13T12:44:17.581Z,13.97
2023-11-13T12:45:20.786Z,12.75
2023-11-13T12:46:24.553Z,13.13
2023-11-13T12:47:28.406Z,12.13
2023-11-13T12:48:31.831Z,11.60
2023-11-13T12:49:36.225Z,10.90
2023-11-13T12:50:40.111Z,12.02
2023-11-13T12:51:45.515Z,12.10
2023-11-13T12:52:52.186Z,12.52
2023-11-13T12:53:55.684Z,11.97
2023-11-13T12:54:59.075Z,12.73
2023-11-13T12:56:07.717Z,11.40
2023-11-13T12:57:19.787Z,11.05
2023-11-13T12:58:23.833Z,11.00
2023-11-13T12:59:28.108Z,10.25
2023-11-13T13:00:31.562Z,9.68
2023-11-13T13:01:34.781Z,10.65
2023-11-13T13:02:37.884Z,10.57
2023-11-13T13:03:42.011Z,9.82
2023-11-13T13:04:52.721Z,10.20
2023-11-13T13:05:56.859Z,9.10
2023-11-13T13:07:02.296Z,9.85
2023-11-13T13:08:06.565Z,10.20
2023-11-13T13:09:12.327Z,9.55
2023-11-13T13:10:15.192Z,10.27
2023-11-13T13:11:18.790Z,10.48
2023-11-13T13:12:21.610Z,9.00
2023-11-13T13:13:25.327Z,14.18
2023-11-13T13:14:28.568Z,16.87
2023-11-13T13:15:33.133Z,20.50
2023-11-13T13:16:39.909Z,22.20
2023-11-13T13:17:44.479Z,21.90
2023-11-13T13:18:47.189Z,29.73
2023-11-13T13:19:50.065Z,25.90
2023-11-13T13:20:53.045Z,24.27
2023-11-13T13:21:56.356Z,18.33
2023-11-13T13:23:00.545Z,18.10
2023-11-13T13:24:07.853Z,19.30
2023-11-13T13:25:10.704Z,17.55
2023-11-13T13:26:14.147Z,18.50
2023-11-13T13:27:17.326Z,17.57
2023-11-13T13:28:20.251Z,15.55
2023-11-13T13:29:24.727Z,15.25
2023-11-13T13:30:32.732Z,13.98
2023-11-13T13:31:37.435Z,14.87
2023-11-13T13:32:40.913Z,15.90
2023-11-13T13:33:43.612Z,14.40
2023-11-13T13:34:46.336Z,14.35
2023-11-13T13:35:49.364Z,12.95
2023-11-13T13:36:52.356Z,14.23
2023-11-13T13:37:55.442Z,15.17
2023-11-13T13:38:58.869Z,14.85
2023-11-13T13:40:04.678Z,14.35
2023-11-13T13:41:07.719Z,15.32
2023-11-13T13:42:10.614Z,14.25
2023-11-13T13:43:14.849Z,13.52
2023-11-13T13:44:17.727Z,13.57
2023-11-13T13:45:22.951Z,13.45
2023-11-13T13:46:27.298Z,13.75
2023-11-13T13:47:30.876Z,13.67
2023-11-13T13:48:35.133Z,12.63
2023-11-13T13:49:38.120Z,14.32
2023-11-13T13:50:43.483Z,13.40
2023-11-13T13:51:47.157Z,12.60
2023-11-13T13:52:57.968Z,13.90
2023-11-13T13:54:01.324Z,12.25
2023-11-13T13:55:11.315Z,11.27
2023-11-13T13:56:19.695Z,11.68
2023-11-13T13:57:22.679Z,11.40
2023-11-13T13:58:25.874Z,10.63
2023-11-13T13:59:28.956Z,11.73
2023-11-13T14:00:37.939Z,11.90
2023-11-13T14:01:42.654Z,11.45
2023-11-13T14:02:46.312Z,11.23
2023-11-13T14:03:49.295Z,11.90
2023-11-13T14:04:52.342Z,12.13
2023-11-13T14:05:56.350Z,11.63
2023-11-13T14:06:59.550Z,11.48
2023-11-13T14:08:02.407Z,11.12
2023-11-13T14:09:08.374Z,12.97
2023-11-13T14:10:14.525Z,17.33